sensor_id;sensor_type;location;lat;lon;timestamp;pressure;altitude;pressure_sealevel;temperature;humidity
27334;BME280;14817;57.104;-2.094;2023-01-24T00:01:54;102220.44;;;7.76;100.00
27334;BME280;14817;57.104;-2.094;2023-01-24T00:04:20;102217.78;;;7.76;100.00
27334;BME280;14817;57.104;-2.094;2023-01-24T00:06:47;102222.19;;;7.91;100.00
27334;BME280;14817;57.104;-2.094;2023-01-24T00:09:13;102218.75;;;7.89;100.00
27334;BME280;14817;57.104;-2.094;2023-01-24T00:11:40;102216.97;;;7.90;100.00
27334;BME280;14817;57.104;-2.094;2023-01-24T00:14:07;102219.41;;;7.93;100.00
27334;BME280;14817;57.104;-2.094;2023-01-24T00:16:36;102223.91;;;7.92;100.00
27334;BME280;14817;57.104;-2.094;2023-01-24T00:19:02;102216.00;;;8.05;100.00
27334;BME280;14817;57.104;-2.094;2023-01-24T00:21:29;102210.38;;;7.95;100.00
27334;BME280;14817;57.104;-2.094;2023-01-24T00:23:56;102217.25;;;8.00;100.00
27334;BME280;14817;57.104;-2.094;2023-01-24T00:26:23;102216.31;;;8.01;100.00
27334;BME280;14817;57.104;-2.094;2023-01-24T00:28:50;102211.72;;;8.03;100.00
27334;BME280;14817;57.104;-2.094;2023-01-24T00:31:17;102209.22;;;8.00;100.00
27334;BME280;14817;57.104;-2.094;2023-01-24T00:33:45;102213.03;;;7.95;100.00
27334;BME280;14817;57.104;-2.094;2023-01-24T00:36:12;102211.34;;;7.94;100.00
27334;BME280;14817;57.104;-2.094;2023-01-24T00:38:39;102215.63;;;7.97;100.00
27334;BME280;14817;57.104;-2.094;2023-01-24T00:41:06;102211.91;;;8.14;100.00
27334;BME280;14817;57.104;-2.094;2023-01-24T00:43:33;102214.88;;;8.24;100.00
27334;BME280;14817;57.104;-2.094;2023-01-24T00:45:59;102218.78;;;8.18;100.00
27334;BME280;14817;57.104;-2.094;2023-01-24T00:48:26;102207.91;;;8.21;100.00
27334;BME280;14817;57.104;-2.094;2023-01-24T00:50:58;102216.03;;;8.20;100.00
27334;BME280;14817;57.104;-2.094;2023-01-24T00:53:25;102217.25;;;8.14;100.00
27334;BME280;14817;57.104;-2.094;2023-01-24T00:55:53;102213.44;;;8.18;100.00
27334;BME280;14817;57.104;-2.094;2023-01-24T00:58:21;102203.31;;;8.23;100.00
27334;BME280;14817;57.104;-2.094;2023-01-24T01:00:48;102210.41;;;8.24;100.00
27334;BME280;14817;57.104;-2.094;2023-01-24T01:03:16;102205.91;;;8.39;100.00
27334;BME280;14817;57.104;-2.094;2023-01-24T01:05:43;102204.09;;;8.39;100.00
27334;BME280;14817;57.104;-2.094;2023-01-24T01:08:10;102216.41;;;8.42;100.00
27334;BME280;14817;57.104;-2.094;2023-01-24T01:10:38;102212.81;;;8.43;100.00
27334;BME280;14817;57.104;-2.094;2023-01-24T01:13:04;102208.50;;;8.41;100.00
27334;BME280;14817;57.104;-2.094;2023-01-24T01:15:31;102208.69;;;8.52;100.00
27334;BME280;14817;57.104;-2.094;2023-01-24T01:17:58;102214.59;;;8.57;100.00
27334;BME280;14817;57.104;-2.094;2023-01-24T01:20:25;102200.09;;;8.47;100.00
27334;BME280;14817;57.104;-2.094;2023-01-24T01:22:53;102199.25;;;8.46;100.00
27334;BME280;14817;57.104;-2.094;2023-01-24T01:25:19;102196.88;;;8.56;100.00
27334;BME280;14817;57.104;-2.094;2023-01-24T01:27:46;102203.81;;;8.58;100.00
27334;BME280;14817;57.104;-2.094;2023-01-24T01:30:13;102201.25;;;8.57;100.00
27334;BME280;14817;57.104;-2.094;2023-01-24T01:32:40;102206.50;;;8.58;100.00
27334;BME280;14817;57.104;-2.094;2023-01-24T01:35:06;102209.63;;;8.65;100.00
27334;BME280;14817;57.104;-2.094;2023-01-24T01:37:33;102207.63;;;8.69;100.00
27334;BME280;14817;57.104;-2.094;2023-01-24T01:40:00;102209.72;;;8.64;100.00
27334;BME280;14817;57.104;-2.094;2023-01-24T01:42:48;102211.13;;;8.69;100.00
27334;BME280;14817;57.104;-2.094;2023-01-24T01:50:51;102213.41;;;8.75;100.00
27334;BME280;14817;57.104;-2.094;2023-01-24T01:53:20;102219.53;;;8.63;100.00
27334;BME280;14817;57.104;-2.094;2023-01-24T01:56:03;102227.00;;;8.58;100.00
27334;BME280;14817;57.104;-2.094;2023-01-24T01:58:32;102233.88;;;8.48;100.00
27334;BME280;14817;57.104;-2.094;2023-01-24T02:00:59;102228.81;;;8.43;100.00
27334;BME280;14817;57.104;-2.094;2023-01-24T02:03:34;102231.63;;;8.40;100.00
27334;BME280;14817;57.104;-2.094;2023-01-24T02:06:06;102223.94;;;8.35;100.00
27334;BME280;14817;57.104;-2.094;2023-01-24T02:08:34;102239.38;;;8.45;100.00
27334;BME280;14817;57.104;-2.094;2023-01-24T02:11:01;102235.78;;;8.46;100.00
27334;BME280;14817;57.104;-2.094;2023-01-24T02:13:46;102244.56;;;8.48;100.00
27334;BME280;14817;57.104;-2.094;2023-01-24T02:16:14;102243.19;;;8.55;100.00
27334;BME280;14817;57.104;-2.094;2023-01-24T02:18:41;102243.03;;;8.58;100.00
27334;BME280;14817;57.104;-2.094;2023-01-24T02:21:09;102244.34;;;8.65;100.00
27334;BME280;14817;57.104;-2.094;2023-01-24T02:26:22;102236.69;;;8.73;100.00
27334;BME280;14817;57.104;-2.094;2023-01-24T02:28:53;102249.47;;;8.68;100.00
27334;BME280;14817;57.104;-2.094;2023-01-24T02:31:21;102248.63;;;8.68;100.00
27334;BME280;14817;57.104;-2.094;2023-01-24T02:33:48;102247.56;;;8.70;100.00
27334;BME280;14817;57.104;-2.094;2023-01-24T02:38:58;102251.38;;;8.81;100.00
27334;BME280;14817;57.104;-2.094;2023-01-24T02:41:36;102254.25;;;8.77;100.00
27334;BME280;14817;57.104;-2.094;2023-01-24T02:44:05;102253.88;;;8.84;100.00
27334;BME280;14817;57.104;-2.094;2023-01-24T02:46:36;102246.41;;;8.74;100.00
27334;BME280;14817;57.104;-2.094;2023-01-24T02:49:06;102242.28;;;8.83;100.00
27334;BME280;14817;57.104;-2.094;2023-01-24T02:51:33;102244.78;;;8.86;100.00
27334;BME280;14817;57.104;-2.094;2023-01-24T02:54:18;102245.84;;;8.84;100.00
27334;BME280;14817;57.104;-2.094;2023-01-24T02:56:44;102250.44;;;8.82;100.00
27334;BME280;14817;57.104;-2.094;2023-01-24T02:59:30;102247.56;;;8.85;100.00
27334;BME280;14817;57.104;-2.094;2023-01-24T03:01:57;102242.97;;;8.87;100.00
27334;BME280;14817;57.104;-2.094;2023-01-24T03:04:25;102250.03;;;8.88;100.00
27334;BME280;14817;57.104;-2.094;2023-01-24T03:06:52;102247.63;;;8.83;100.00
27334;BME280;14817;57.104;-2.094;2023-01-24T03:09:19;102253.66;;;8.87;100.00
27334;BME280;14817;57.104;-2.094;2023-01-24T03:12:03;102248.13;;;8.90;100.00
27334;BME280;14817;57.104;-2.094;2023-01-24T03:15:21;102250.03;;;8.88;100.00
27334;BME280;14817;57.104;-2.094;2023-01-24T03:18:07;102248.31;;;8.87;100.00
27334;BME280;14817;57.104;-2.094;2023-01-24T03:20:52;102244.97;;;8.83;100.00
27334;BME280;14817;57.104;-2.094;2023-01-24T03:23:37;102253.47;;;8.90;100.00
27334;BME280;14817;57.104;-2.094;2023-01-24T03:26:23;102252.88;;;8.99;100.00
27334;BME280;14817;57.104;-2.094;2023-01-24T03:29:09;102255.16;;;8.91;100.00
27334;BME280;14817;57.104;-2.094;2023-01-24T03:31:55;102250.38;;;8.96;100.00
27334;BME280;14817;57.104;-2.094;2023-01-24T03:34:40;102253.63;;;9.01;100.00
27334;BME280;14817;57.104;-2.094;2023-01-24T03:37:20;102250.69;;;8.91;100.00
27334;BME280;14817;57.104;-2.094;2023-01-24T03:40:09;102248.69;;;8.95;100.00
27334;BME280;14817;57.104;-2.094;2023-01-24T03:42:37;102255.88;;;8.80;100.00
27334;BME280;14817;57.104;-2.094;2023-01-24T03:45:15;102257.09;;;8.74;100.00
27334;BME280;14817;57.104;-2.094;2023-01-24T03:47:52;102264.47;;;8.71;100.00
27334;BME280;14817;57.104;-2.094;2023-01-24T03:50:25;102254.81;;;8.68;100.00
27334;BME280;14817;57.104;-2.094;2023-01-24T03:53:12;102264.66;;;8.68;100.00
27334;BME280;14817;57.104;-2.094;2023-01-24T03:55:40;102270.47;;;8.74;100.00
27334;BME280;14817;57.104;-2.094;2023-01-24T03:58:07;102267.53;;;8.79;100.00
27334;BME280;14817;57.104;-2.094;2023-01-24T04:00:34;102261.00;;;8.83;100.00
27334;BME280;14817;57.104;-2.094;2023-01-24T04:03:08;102268.91;;;8.85;100.00
27334;BME280;14817;57.104;-2.094;2023-01-24T04:05:35;102263.50;;;8.86;100.00
27334;BME280;14817;57.104;-2.094;2023-01-24T04:08:02;102269.09;;;8.96;100.00
27334;BME280;14817;57.104;-2.094;2023-01-24T04:10:29;102266.06;;;8.88;100.00
27334;BME280;14817;57.104;-2.094;2023-01-24T04:12:57;102266.91;;;8.88;100.00
27334;BME280;14817;57.104;-2.094;2023-01-24T04:15:26;102268.75;;;8.88;100.00
27334;BME280;14817;57.104;-2.094;2023-01-24T04:18:10;102266.16;;;8.86;100.00
27334;BME280;14817;57.104;-2.094;2023-01-24T04:20:39;102267.78;;;8.89;100.00
27334;BME280;14817;57.104;-2.094;2023-01-24T04:23:07;102269.69;;;8.87;100.00
27334;BME280;14817;57.104;-2.094;2023-01-24T04:25:36;102269.13;;;8.82;100.00
27334;BME280;14817;57.104;-2.094;2023-01-24T04:28:03;102272.88;;;8.79;100.00
27334;BME280;14817;57.104;-2.094;2023-01-24T04:30:32;102261.28;;;8.78;100.00
27334;BME280;14817;57.104;-2.094;2023-01-24T04:33:01;102263.50;;;8.86;100.00
27334;BME280;14817;57.104;-2.094;2023-01-24T04:35:28;102257.69;;;8.79;100.00
27334;BME280;14817;57.104;-2.094;2023-01-24T04:38:02;102263.03;;;8.79;100.00
27334;BME280;14817;57.104;-2.094;2023-01-24T04:40:39;102267.41;;;8.81;100.00
27334;BME280;14817;57.104;-2.094;2023-01-24T04:43:07;102267.97;;;8.86;100.00
27334;BME280;14817;57.104;-2.094;2023-01-24T04:45:34;102267.16;;;8.98;100.00
27334;BME280;14817;57.104;-2.094;2023-01-24T04:48:01;102260.94;;;9.12;100.00
27334;BME280;14817;57.104;-2.094;2023-01-24T04:50:29;102261.50;;;9.17;100.00
27334;BME280;14817;57.104;-2.094;2023-01-24T04:52:56;102263.66;;;9.25;100.00
27334;BME280;14817;57.104;-2.094;2023-01-24T04:55:23;102254.50;;;9.29;100.00
27334;BME280;14817;57.104;-2.094;2023-01-24T04:57:51;102264.44;;;9.27;100.00
27334;BME280;14817;57.104;-2.094;2023-01-24T05:00:18;102272.44;;;9.27;100.00
27334;BME280;14817;57.104;-2.094;2023-01-24T05:02:45;102273.50;;;9.24;100.00
27334;BME280;14817;57.104;-2.094;2023-01-24T05:05:13;102268.66;;;9.16;100.00
27334;BME280;14817;57.104;-2.094;2023-01-24T05:07:41;102270.56;;;9.14;100.00
27334;BME280;14817;57.104;-2.094;2023-01-24T05:10:13;102264.69;;;9.09;100.00
27334;BME280;14817;57.104;-2.094;2023-01-24T05:12:40;102268.22;;;8.95;100.00
27334;BME280;14817;57.104;-2.094;2023-01-24T05:15:16;102266.53;;;8.94;100.00
27334;BME280;14817;57.104;-2.094;2023-01-24T05:17:44;102267.22;;;8.84;100.00
27334;BME280;14817;57.104;-2.094;2023-01-24T05:20:15;102270.28;;;8.77;100.00
27334;BME280;14817;57.104;-2.094;2023-01-24T05:22:43;102270.66;;;8.71;100.00
27334;BME280;14817;57.104;-2.094;2023-01-24T05:25:14;102268.94;;;8.70;100.00
27334;BME280;14817;57.104;-2.094;2023-01-24T05:27:42;102269.13;;;8.82;100.00
27334;BME280;14817;57.104;-2.094;2023-01-24T05:30:11;102260.91;;;8.85;100.00
27334;BME280;14817;57.104;-2.094;2023-01-24T05:32:38;102262.63;;;8.86;100.00
27334;BME280;14817;57.104;-2.094;2023-01-24T05:35:06;102255.78;;;8.82;100.00
27334;BME280;14817;57.104;-2.094;2023-01-24T05:37:35;102268.53;;;8.76;100.00
27334;BME280;14817;57.104;-2.094;2023-01-24T05:40:03;102263.66;;;8.83;100.00
27334;BME280;14817;57.104;-2.094;2023-01-24T05:42:31;102263.97;;;8.78;100.00
27334;BME280;14817;57.104;-2.094;2023-01-24T05:44:58;102266.56;;;8.80;100.00
27334;BME280;14817;57.104;-2.094;2023-01-24T05:47:24;102264.56;;;8.69;100.00
27334;BME280;14817;57.104;-2.094;2023-01-24T05:49:51;102259.59;;;8.63;100.00
27334;BME280;14817;57.104;-2.094;2023-01-24T05:52:19;102258.38;;;8.54;100.00
27334;BME280;14817;57.104;-2.094;2023-01-24T05:54:51;102262.56;;;8.58;100.00
27334;BME280;14817;57.104;-2.094;2023-01-24T05:57:27;102262.47;;;8.60;100.00
27334;BME280;14817;57.104;-2.094;2023-01-24T06:00:13;102267.63;;;8.63;100.00
27334;BME280;14817;57.104;-2.094;2023-01-24T06:02:40;102267.41;;;8.66;100.00
27334;BME280;14817;57.104;-2.094;2023-01-24T06:05:08;102270.28;;;8.49;100.00
27334;BME280;14817;57.104;-2.094;2023-01-24T06:07:35;102275.25;;;8.41;100.00
27334;BME280;14817;57.104;-2.094;2023-01-24T06:10:02;102271.59;;;8.27;100.00
27334;BME280;14817;57.104;-2.094;2023-01-24T06:12:38;102265.47;;;8.25;100.00
27334;BME280;14817;57.104;-2.094;2023-01-24T06:15:04;102269.09;;;8.10;100.00
27334;BME280;14817;57.104;-2.094;2023-01-24T06:17:31;102273.59;;;8.09;100.00
27334;BME280;14817;57.104;-2.094;2023-01-24T06:19:58;102276.41;;;8.06;100.00
27334;BME280;14817;57.104;-2.094;2023-01-24T06:22:27;102282.59;;;7.92;100.00
27334;BME280;14817;57.104;-2.094;2023-01-24T06:24:55;102277.72;;;7.85;100.00
27334;BME280;14817;57.104;-2.094;2023-01-24T06:27:25;102276.50;;;7.90;100.00
27334;BME280;14817;57.104;-2.094;2023-01-24T06:29:52;102277.06;;;7.95;100.00
27334;BME280;14817;57.104;-2.094;2023-01-24T06:35:53;102269.84;;;8.12;100.00
27334;BME280;14817;57.104;-2.094;2023-01-24T06:37:51;102264.22;;;8.02;100.00
27334;BME280;14817;57.104;-2.094;2023-01-24T06:40:20;102264.31;;;8.01;100.00
27334;BME280;14817;57.104;-2.094;2023-01-24T06:42:47;102255.56;;;7.98;100.00
27334;BME280;14817;57.104;-2.094;2023-01-24T06:45:14;102258.88;;;7.88;100.00
27334;BME280;14817;57.104;-2.094;2023-01-24T06:47:41;102263.34;;;7.87;100.00
27334;BME280;14817;57.104;-2.094;2023-01-24T06:50:16;102265.63;;;7.93;100.00
27334;BME280;14817;57.104;-2.094;2023-01-24T06:52:47;102266.25;;;8.13;100.00
27334;BME280;14817;57.104;-2.094;2023-01-24T06:55:15;102257.88;;;8.33;100.00
27334;BME280;14817;57.104;-2.094;2023-01-24T06:57:46;102260.53;;;8.33;100.00
27334;BME280;14817;57.104;-2.094;2023-01-24T07:00:22;102260.56;;;8.48;100.00
27334;BME280;14817;57.104;-2.094;2023-01-24T07:02:56;102247.97;;;8.50;100.00
27334;BME280;14817;57.104;-2.094;2023-01-24T07:05:23;102252.94;;;8.42;100.00
27334;BME280;14817;57.104;-2.094;2023-01-24T07:07:50;102261.72;;;8.44;100.00
27334;BME280;14817;57.104;-2.094;2023-01-24T07:10:16;102261.38;;;8.34;100.00
27334;BME280;14817;57.104;-2.094;2023-01-24T07:12:43;102257.09;;;8.31;100.00
27334;BME280;14817;57.104;-2.094;2023-01-24T07:15:10;102254.72;;;8.27;100.00
27334;BME280;14817;57.104;-2.094;2023-01-24T07:17:36;102257.69;;;8.22;100.00
27334;BME280;14817;57.104;-2.094;2023-01-24T07:20:04;102257.75;;;8.21;100.00
27334;BME280;14817;57.104;-2.094;2023-01-24T07:22:48;102262.94;;;8.24;100.00
27334;BME280;14817;57.104;-2.094;2023-01-24T07:36:32;102262.94;;;8.52;100.00
27334;BME280;14817;57.104;-2.094;2023-01-24T07:38:59;102261.13;;;8.53;100.00
27334;BME280;14817;57.104;-2.094;2023-01-24T07:41:26;102259.13;;;8.56;100.00
27334;BME280;14817;57.104;-2.094;2023-01-24T07:43:53;102252.75;;;8.59;100.00
27334;BME280;14817;57.104;-2.094;2023-01-24T07:46:21;102258.47;;;8.67;100.00
27334;BME280;14817;57.104;-2.094;2023-01-24T07:48:48;102256.84;;;8.65;100.00
27334;BME280;14817;57.104;-2.094;2023-01-24T07:51:15;102263.88;;;8.66;100.00
27334;BME280;14817;57.104;-2.094;2023-01-24T07:53:41;102263.13;;;8.64;100.00
27334;BME280;14817;57.104;-2.094;2023-01-24T07:56:08;102271.34;;;8.75;100.00
27334;BME280;14817;57.104;-2.094;2023-01-24T07:58:49;102275.63;;;8.77;100.00
27334;BME280;14817;57.104;-2.094;2023-01-24T08:01:17;102265.31;;;8.86;100.00
27334;BME280;14817;57.104;-2.094;2023-01-24T08:03:46;102272.94;;;8.92;100.00
27334;BME280;14817;57.104;-2.094;2023-01-24T08:06:13;102272.66;;;8.82;100.00
27334;BME280;14817;57.104;-2.094;2023-01-24T08:08:39;102272.88;;;8.79;100.00
27334;BME280;14817;57.104;-2.094;2023-01-24T08:11:06;102276.09;;;8.84;100.00
27334;BME280;14817;57.104;-2.094;2023-01-24T08:13:33;102274.44;;;8.96;100.00
27334;BME280;14817;57.104;-2.094;2023-01-24T08:16:09;102281.97;;;9.04;100.00
27334;BME280;14817;57.104;-2.094;2023-01-24T08:18:37;102288.97;;;9.19;100.00
27334;BME280;14817;57.104;-2.094;2023-01-24T08:21:05;102289.75;;;9.21;100.00
27334;BME280;14817;57.104;-2.094;2023-01-24T08:23:32;102290.41;;;9.25;100.00
27334;BME280;14817;57.104;-2.094;2023-01-24T08:26:02;102289.25;;;9.29;100.00
27334;BME280;14817;57.104;-2.094;2023-01-24T08:28:29;102299.53;;;9.35;100.00
27334;BME280;14817;57.104;-2.094;2023-01-24T08:30:57;102302.22;;;9.35;100.00
27334;BME280;14817;57.104;-2.094;2023-01-24T08:33:25;102298.13;;;9.29;100.00
27334;BME280;14817;57.104;-2.094;2023-01-24T08:35:53;102302.81;;;9.26;100.00
27334;BME280;14817;57.104;-2.094;2023-01-24T08:38:19;102307.16;;;9.14;100.00
27334;BME280;14817;57.104;-2.094;2023-01-24T08:40:47;102303.63;;;9.13;100.00
27334;BME280;14817;57.104;-2.094;2023-01-24T08:43:16;102308.28;;;9.10;100.00
27334;BME280;14817;57.104;-2.094;2023-01-24T08:45:43;102312.47;;;9.28;100.00
27334;BME280;14817;57.104;-2.094;2023-01-24T08:48:09;102305.94;;;9.59;100.00
27334;BME280;14817;57.104;-2.094;2023-01-24T08:50:36;102310.88;;;9.66;100.00
27334;BME280;14817;57.104;-2.094;2023-01-24T08:53:03;102309.59;;;9.58;100.00
27334;BME280;14817;57.104;-2.094;2023-01-24T08:55:30;102302.91;;;9.51;100.00
27334;BME280;14817;57.104;-2.094;2023-01-24T08:58:01;102308.25;;;9.51;100.00
27334;BME280;14817;57.104;-2.094;2023-01-24T09:00:28;102313.72;;;9.50;100.00
27334;BME280;14817;57.104;-2.094;2023-01-24T09:02:55;102310.53;;;9.57;100.00
27334;BME280;14817;57.104;-2.094;2023-01-24T09:05:27;102313.00;;;9.60;100.00
27334;BME280;14817;57.104;-2.094;2023-01-24T09:07:53;102309.63;;;9.44;100.00
27334;BME280;14817;57.104;-2.094;2023-01-24T09:10:20;102310.59;;;9.43;100.00
27334;BME280;14817;57.104;-2.094;2023-01-24T09:12:47;102311.91;;;9.50;100.00
27334;BME280;14817;57.104;-2.094;2023-01-24T09:15:13;102307.41;;;9.51;100.00
27334;BME280;14817;57.104;-2.094;2023-01-24T09:17:40;102302.28;;;9.48;100.00
27334;BME280;14817;57.104;-2.094;2023-01-24T09:20:10;102303.78;;;9.52;100.00
27334;BME280;14817;57.104;-2.094;2023-01-24T09:22:37;102304.81;;;9.49;100.00
27334;BME280;14817;57.104;-2.094;2023-01-24T09:25:03;102301.00;;;9.53;100.00
27334;BME280;14817;57.104;-2.094;2023-01-24T09:27:30;102296.53;;;9.54;100.00
27334;BME280;14817;57.104;-2.094;2023-01-24T09:29:56;102294.69;;;9.54;100.00
27334;BME280;14817;57.104;-2.094;2023-01-24T09:32:23;102299.56;;;9.75;100.00
27334;BME280;14817;57.104;-2.094;2023-01-24T09:34:50;102296.13;;;9.73;100.00
27334;BME280;14817;57.104;-2.094;2023-01-24T09:37:17;102298.50;;;9.77;100.00
27334;BME280;14817;57.104;-2.094;2023-01-24T09:39:44;102301.09;;;9.92;100.00
27334;BME280;14817;57.104;-2.094;2023-01-24T09:47:26;102301.88;;;10.07;100.00
27334;BME280;14817;57.104;-2.094;2023-01-24T09:50:03;102300.91;;;10.08;100.00
27334;BME280;14817;57.104;-2.094;2023-01-24T09:52:32;102302.41;;;10.12;100.00
27334;BME280;14817;57.104;-2.094;2023-01-24T09:57:37;102289.50;;;10.31;100.00
27334;BME280;14817;57.104;-2.094;2023-01-24T10:00:16;102298.47;;;10.56;100.00
27334;BME280;14817;57.104;-2.094;2023-01-24T10:02:44;102284.88;;;10.59;100.00
27334;BME280;14817;57.104;-2.094;2023-01-24T10:05:14;102284.88;;;10.59;100.00
27334;BME280;14817;57.104;-2.094;2023-01-24T10:18:46;102272.56;;;11.30;100.00
27334;BME280;14817;57.104;-2.094;2023-01-24T10:21:11;102273.19;;;11.34;100.00
27334;BME280;14817;57.104;-2.094;2023-01-24T10:23:35;102279.22;;;11.84;100.00
27334;BME280;14817;57.104;-2.094;2023-01-24T10:26:18;102277.78;;;12.26;100.00
27334;BME280;14817;57.104;-2.094;2023-01-24T10:28:52;102272.66;;;12.35;100.00
27334;BME280;14817;57.104;-2.094;2023-01-24T10:31:30;102271.44;;;12.50;100.00
27334;BME280;14817;57.104;-2.094;2023-01-24T10:39:29;102269.06;;;13.13;100.00
27334;BME280;14817;57.104;-2.094;2023-01-24T10:41:57;102268.38;;;13.43;100.00
27334;BME280;14817;57.104;-2.094;2023-01-24T10:44:25;102265.81;;;13.42;100.00
27334;BME280;14817;57.104;-2.094;2023-01-24T10:49:29;102267.53;;;13.43;100.00
27334;BME280;14817;57.104;-2.094;2023-01-24T10:52:07;102256.72;;;13.75;100.00
27334;BME280;14817;57.104;-2.094;2023-01-24T10:54:51;102258.09;;;13.69;100.00
27334;BME280;14817;57.104;-2.094;2023-01-24T10:57:33;102257.78;;;13.84;100.00
27334;BME280;14817;57.104;-2.094;2023-01-24T11:00:17;102254.06;;;13.43;100.00
27334;BME280;14817;57.104;-2.094;2023-01-24T11:02:49;102258.00;;;13.39;100.00
27334;BME280;14817;57.104;-2.094;2023-01-24T11:05:17;102255.38;;;13.05;100.00
27334;BME280;14817;57.104;-2.094;2023-01-24T11:07:51;102245.72;;;13.02;100.00
27334;BME280;14817;57.104;-2.094;2023-01-24T11:10:19;102251.50;;;12.98;100.00
27334;BME280;14817;57.104;-2.094;2023-01-24T11:12:47;102248.75;;;13.09;100.00
27334;BME280;14817;57.104;-2.094;2023-01-24T11:20:30;102241.53;;;12.55;100.00
27334;BME280;14817;57.104;-2.094;2023-01-24T11:23:01;102245.16;;;12.65;100.00
27334;BME280;14817;57.104;-2.094;2023-01-24T11:25:28;102242.03;;;12.49;100.00
27334;BME280;14817;57.104;-2.094;2023-01-24T11:27:55;102238.47;;;12.37;100.00
27334;BME280;14817;57.104;-2.094;2023-01-24T11:30:22;102233.84;;;12.28;100.00
27334;BME280;14817;57.104;-2.094;2023-01-24T11:33:05;102224.66;;;12.30;100.00
27334;BME280;14817;57.104;-2.094;2023-01-24T11:35:38;102229.19;;;12.30;100.00
27334;BME280;14817;57.104;-2.094;2023-01-24T11:38:25;102224.91;;;12.38;100.00
27334;BME280;14817;57.104;-2.094;2023-01-24T11:40:58;102216.25;;;12.46;100.00
27334;BME280;14817;57.104;-2.094;2023-01-24T11:43:30;102217.06;;;12.69;100.00
27334;BME280;14817;57.104;-2.094;2023-01-24T11:48:56;102207.16;;;12.81;100.00
27334;BME280;14817;57.104;-2.094;2023-01-24T12:02:03;102191.78;;;12.72;100.00
27334;BME280;14817;57.104;-2.094;2023-01-24T12:09:53;102184.94;;;12.56;100.00
27334;BME280;14817;57.104;-2.094;2023-01-24T12:12:27;102186.69;;;12.57;100.00
27334;BME280;14817;57.104;-2.094;2023-01-24T12:20:15;102171.53;;;12.22;100.00
27334;BME280;14817;57.104;-2.094;2023-01-24T12:22:57;102169.84;;;12.21;100.00
27334;BME280;14817;57.104;-2.094;2023-01-24T12:25:32;102171.19;;;12.16;100.00
27334;BME280;14817;57.104;-2.094;2023-01-24T12:28:01;102164.59;;;12.20;100.00
27334;BME280;14817;57.104;-2.094;2023-01-24T12:35:45;102154.09;;;12.17;100.00
27334;BME280;14817;57.104;-2.094;2023-01-24T12:56:16;102157.50;;;12.30;100.00
27334;BME280;14817;57.104;-2.094;2023-01-24T12:58:45;102152.97;;;12.31;100.00
27334;BME280;14817;57.104;-2.094;2023-01-24T13:11:31;102152.25;;;12.40;100.00
27334;BME280;14817;57.104;-2.094;2023-01-24T13:24:28;102147.72;;;12.40;100.00
27334;BME280;14817;57.104;-2.094;2023-01-24T13:27:05;102141.63;;;12.38;100.00
27334;BME280;14817;57.104;-2.094;2023-01-24T13:29:40;102137.44;;;12.45;100.00
27334;BME280;14817;57.104;-2.094;2023-01-24T13:32:15;102137.34;;;12.47;100.00
27334;BME280;14817;57.104;-2.094;2023-01-24T13:34:44;102129.66;;;12.42;100.00
27334;BME280;14817;57.104;-2.094;2023-01-24T13:37:16;102136.34;;;12.48;100.00
27334;BME280;14817;57.104;-2.094;2023-01-24T13:39:44;102131.69;;;12.50;100.00
27334;BME280;14817;57.104;-2.094;2023-01-24T13:42:35;102128.13;;;12.61;100.00
27334;BME280;14817;57.104;-2.094;2023-01-24T13:46:04;102124.31;;;12.75;100.00
27334;BME280;14817;57.104;-2.094;2023-01-24T13:48:00;102118.78;;;12.87;100.00
27334;BME280;14817;57.104;-2.094;2023-01-24T13:50:29;102114.84;;;12.92;100.00
27334;BME280;14817;57.104;-2.094;2023-01-24T13:53:00;102118.00;;;12.97;100.00
27334;BME280;14817;57.104;-2.094;2023-01-24T14:03:16;102104.66;;;13.27;100.00
27334;BME280;14817;57.104;-2.094;2023-01-24T14:05:46;102114.38;;;13.19;100.00
27334;BME280;14817;57.104;-2.094;2023-01-24T14:08:36;102111.41;;;13.22;100.00
27334;BME280;14817;57.104;-2.094;2023-01-24T14:21:23;102093.56;;;12.68;100.00
27334;BME280;14817;57.104;-2.094;2023-01-24T14:23:55;102087.97;;;12.59;100.00
27334;BME280;14817;57.104;-2.094;2023-01-24T14:26:24;102095.69;;;12.41;100.00
27334;BME280;14817;57.104;-2.094;2023-01-24T14:28:55;102096.44;;;12.32;100.00
27334;BME280;14817;57.104;-2.094;2023-01-24T14:33:55;102098.91;;;12.24;100.00
27334;BME280;14817;57.104;-2.094;2023-01-24T14:36:32;102094.03;;;12.18;100.00
27334;BME280;14817;57.104;-2.094;2023-01-24T14:39:19;102099.59;;;12.37;100.00
27334;BME280;14817;57.104;-2.094;2023-01-24T14:41:47;102096.19;;;12.35;100.00
27334;BME280;14817;57.104;-2.094;2023-01-24T14:44:15;102095.38;;;12.23;100.00
27334;BME280;14817;57.104;-2.094;2023-01-24T14:46:42;102094.25;;;12.26;100.00
27334;BME280;14817;57.104;-2.094;2023-01-24T14:49:23;102091.59;;;12.15;100.00
27334;BME280;14817;57.104;-2.094;2023-01-24T14:51:51;102090.50;;;12.17;100.00
27334;BME280;14817;57.104;-2.094;2023-01-24T14:54:21;102084.38;;;12.15;100.00
27334;BME280;14817;57.104;-2.094;2023-01-24T14:56:49;102089.53;;;12.18;100.00
27334;BME280;14817;57.104;-2.094;2023-01-24T14:59:19;102091.09;;;12.10;100.00
27334;BME280;14817;57.104;-2.094;2023-01-24T15:01:50;102085.00;;;11.96;100.00
27334;BME280;14817;57.104;-2.094;2023-01-24T15:07:02;102082.31;;;11.96;100.00
27334;BME280;14817;57.104;-2.094;2023-01-24T15:09:29;102087.44;;;11.88;100.00
27334;BME280;14817;57.104;-2.094;2023-01-24T15:11:56;102095.97;;;11.71;100.00
27334;BME280;14817;57.104;-2.094;2023-01-24T15:14:22;102089.59;;;11.49;100.00
27334;BME280;14817;57.104;-2.094;2023-01-24T15:16:53;102085.44;;;11.34;100.00
27334;BME280;14817;57.104;-2.094;2023-01-24T15:19:24;102090.63;;;11.24;100.00
27334;BME280;14817;57.104;-2.094;2023-01-24T15:21:51;102095.72;;;11.16;100.00
27334;BME280;14817;57.104;-2.094;2023-01-24T15:24:22;102090.22;;;11.06;100.00